sensor_id;sensor_type;location;lat;lon;timestamp;pressure;altitude;pressure_sealevel;temperature;humidity
69173;BME280;56280;49.662;8.408;2023-04-30T00:02:03;101140.91;;;11.50;80.61
69173;BME280;56280;49.662;8.408;2023-04-30T00:04:28;101140.88;;;11.39;80.93
69173;BME280;56280;49.662;8.408;2023-04-30T00:06:53;101153.22;;;11.51;80.73
69173;BME280;56280;49.662;8.408;2023-04-30T00:09:19;101149.28;;;11.57;81.42
69173;BME280;56280;49.662;8.408;2023-04-30T00:11:45;101155.84;;;11.64;79.86
69173;BME280;56280;49.662;8.408;2023-04-30T00:14:10;101153.31;;;11.62;79.95
69173;BME280;56280;49.662;8.408;2023-04-30T00:16:35;101153.81;;;11.67;79.34
69173;BME280;56280;49.662;8.408;2023-04-30T00:19:01;101128.44;;;11.50;78.82
69173;BME280;56280;49.662;8.408;2023-04-30T00:21:26;101146.78;;;11.66;79.05
69173;BME280;56280;49.662;8.408;2023-04-30T00:23:51;101159.91;;;11.81;78.81
69173;BME280;56280;49.662;8.408;2023-04-30T00:26:17;101156.28;;;11.82;78.52
69173;BME280;56280;49.662;8.408;2023-04-30T00:28:42;101169.25;;;11.86;78.38
69173;BME280;56280;49.662;8.408;2023-04-30T00:31:07;101165.19;;;11.94;77.69
69173;BME280;56280;49.662;8.408;2023-04-30T00:33:33;101169.00;;;11.90;78.00
69173;BME280;56280;49.662;8.408;2023-04-30T00:35:59;101170.28;;;11.97;77.85
69173;BME280;56280;49.662;8.408;2023-04-30T00:38:25;101177.41;;;11.96;77.97
69173;BME280;56280;49.662;8.408;2023-04-30T00:40:51;101148.19;;;11.83;78.24
69173;BME280;56280;49.662;8.408;2023-04-30T00:43:16;101162.41;;;11.95;78.09
69173;BME280;56280;49.662;8.408;2023-04-30T00:45:42;101148.53;;;11.79;78.15
69173;BME280;56280;49.662;8.408;2023-04-30T00:48:07;101163.28;;;11.83;78.47
69173;BME280;56280;49.662;8.408;2023-04-30T00:50:35;101174.66;;;11.74;79.57
69173;BME280;56280;49.662;8.408;2023-04-30T00:53:00;101161.53;;;11.59;79.88
69173;BME280;56280;49.662;8.408;2023-04-30T00:55:25;101164.47;;;11.67;79.37
69173;BME280;56280;49.662;8.408;2023-04-30T00:57:51;101159.69;;;11.60;79.66
69173;BME280;56280;49.662;8.408;2023-04-30T01:00:16;101152.50;;;11.49;80.20
69173;BME280;56280;49.662;8.408;2023-04-30T01:02:42;101163.09;;;11.62;79.96
69173;BME280;56280;49.662;8.408;2023-04-30T01:05:08;101152.16;;;11.54;80.63
69173;BME280;56280;49.662;8.408;2023-04-30T01:07:34;101165.88;;;11.60;80.17
69173;BME280;56280;49.662;8.408;2023-04-30T01:10:00;101165.63;;;11.63;79.77
69173;BME280;56280;49.662;8.408;2023-04-30T01:12:45;101171.94;;;11.62;80.19
69173;BME280;56280;49.662;8.408;2023-04-30T01:18:08;101165.59;;;11.52;81.40
69173;BME280;56280;49.662;8.408;2023-04-30T01:20:43;101154.16;;;11.39;81.26
69173;BME280;56280;49.662;8.408;2023-04-30T01:23:32;101157.56;;;11.41;80.91
69173;BME280;56280;49.662;8.408;2023-04-30T01:26:12;101152.00;;;11.44;81.00
69173;BME280;56280;49.662;8.408;2023-04-30T01:28:39;101161.81;;;11.43;81.38
69173;BME280;56280;49.662;8.408;2023-04-30T01:31:13;101161.00;;;11.30;81.75
69173;BME280;56280;49.662;8.408;2023-04-30T01:33:39;101145.84;;;11.19;81.93
69173;BME280;56280;49.662;8.408;2023-04-30T01:41:46;101137.59;;;11.35;82.36
69173;BME280;56280;49.662;8.408;2023-04-30T01:44:38;101141.75;;;11.26;82.62
69173;BME280;56280;49.662;8.408;2023-04-30T01:47:09;101142.78;;;11.12;83.28
69173;BME280;56280;49.662;8.408;2023-04-30T01:49:57;101167.97;;;11.20;83.12
69173;BME280;56280;49.662;8.408;2023-04-30T01:55:08;101163.47;;;11.20;83.18
69173;BME280;56280;49.662;8.408;2023-04-30T01:57:48;101159.69;;;11.11;83.00
69173;BME280;56280;49.662;8.408;2023-04-30T02:00:16;101167.00;;;11.21;83.31
69173;BME280;56280;49.662;8.408;2023-04-30T02:02:42;101173.78;;;11.25;82.82
69173;BME280;56280;49.662;8.408;2023-04-30T02:05:07;101156.59;;;11.18;82.97
69173;BME280;56280;49.662;8.408;2023-04-30T02:07:40;101176.06;;;11.18;83.50
69173;BME280;56280;49.662;8.408;2023-04-30T02:10:07;101153.22;;;11.03;82.63
69173;BME280;56280;49.662;8.408;2023-04-30T02:12:33;101163.66;;;10.93;83.41
69173;BME280;56280;49.662;8.408;2023-04-30T02:14:59;101171.44;;;10.96;83.50
69173;BME280;56280;49.662;8.408;2023-04-30T02:17:24;101168.16;;;10.92;83.62
69173;BME280;56280;49.662;8.408;2023-04-30T02:19:49;101145.41;;;10.88;82.75
69173;BME280;56280;49.662;8.408;2023-04-30T02:22:15;101167.38;;;11.03;83.22
69173;BME280;56280;49.662;8.408;2023-04-30T02:24:40;101159.91;;;11.08;82.36
69173;BME280;56280;49.662;8.408;2023-04-30T02:27:05;101160.53;;;11.12;81.85
69173;BME280;56280;49.662;8.408;2023-04-30T02:29:30;101162.75;;;11.18;82.00
69173;BME280;56280;49.662;8.408;2023-04-30T02:31:59;101155.09;;;11.13;82.30
69173;BME280;56280;49.662;8.408;2023-04-30T02:34:24;101160.13;;;11.05;82.27
69173;BME280;56280;49.662;8.408;2023-04-30T02:36:50;101159.72;;;10.99;82.72
69173;BME280;56280;49.662;8.408;2023-04-30T02:39:15;101163.22;;;10.99;82.74
69173;BME280;56280;49.662;8.408;2023-04-30T02:41:40;101149.03;;;10.87;83.57
69173;BME280;56280;49.662;8.408;2023-04-30T02:44:06;101140.97;;;10.76;83.40
69173;BME280;56280;49.662;8.408;2023-04-30T02:46:37;101152.81;;;10.96;84.10
69173;BME280;56280;49.662;8.408;2023-04-30T02:49:02;101148.59;;;10.93;83.48
69173;BME280;56280;49.662;8.408;2023-04-30T02:51:28;101152.78;;;11.09;83.66
69173;BME280;56280;49.662;8.408;2023-04-30T02:53:53;101148.03;;;11.01;83.31
69173;BME280;56280;49.662;8.408;2023-04-30T02:56:18;101141.25;;;10.84;84.54
69173;BME280;56280;49.662;8.408;2023-04-30T02:58:44;101172.41;;;10.95;83.96
69173;BME280;56280;49.662;8.408;2023-04-30T03:01:09;101161.00;;;10.93;83.99
69173;BME280;56280;49.662;8.408;2023-04-30T03:03:35;101160.09;;;10.81;83.79
69173;BME280;56280;49.662;8.408;2023-04-30T03:06:00;101164.75;;;10.90;82.90
69173;BME280;56280;49.662;8.408;2023-04-30T03:08:25;101174.63;;;11.01;83.12
69173;BME280;56280;49.662;8.408;2023-04-30T03:10:51;101162.72;;;10.94;82.51
69173;BME280;56280;49.662;8.408;2023-04-30T03:13:16;101171.31;;;10.98;83.28
69173;BME280;56280;49.662;8.408;2023-04-30T03:15:42;101176.22;;;10.91;83.71
69173;BME280;56280;49.662;8.408;2023-04-30T03:18:07;101169.84;;;10.93;83.24
69173;BME280;56280;49.662;8.408;2023-04-30T03:20:32;101166.03;;;10.85;84.00
69173;BME280;56280;49.662;8.408;2023-04-30T03:22:57;101148.22;;;10.74;84.29
69173;BME280;56280;49.662;8.408;2023-04-30T03:25:23;101155.63;;;10.69;84.89
69173;BME280;56280;49.662;8.408;2023-04-30T03:27:48;101163.94;;;10.77;84.51
69173;BME280;56280;49.662;8.408;2023-04-30T03:30:14;101154.97;;;10.91;84.28
69173;BME280;56280;49.662;8.408;2023-04-30T03:32:39;101147.00;;;10.78;84.55
69173;BME280;56280;49.662;8.408;2023-04-30T03:35:05;101153.09;;;10.67;84.55
69173;BME280;56280;49.662;8.408;2023-04-30T03:37:30;101157.97;;;10.73;84.01
69173;BME280;56280;49.662;8.408;2023-04-30T03:39:55;101161.22;;;10.90;83.20
69173;BME280;56280;49.662;8.408;2023-04-30T03:42:21;101139.47;;;10.72;83.84
69173;BME280;56280;49.662;8.408;2023-04-30T03:44:46;101163.38;;;10.72;84.34
69173;BME280;56280;49.662;8.408;2023-04-30T03:47:11;101146.94;;;10.67;84.35
69173;BME280;56280;49.662;8.408;2023-04-30T03:49:37;101169.38;;;10.75;84.58
69173;BME280;56280;49.662;8.408;2023-04-30T03:52:02;101150.69;;;10.64;84.72
69173;BME280;56280;49.662;8.408;2023-04-30T03:54:28;101170.94;;;10.78;84.08
69173;BME280;56280;49.662;8.408;2023-04-30T03:56:54;101153.25;;;10.53;85.25
69173;BME280;56280;49.662;8.408;2023-04-30T03:59:20;101165.84;;;10.75;85.17
69173;BME280;56280;49.662;8.408;2023-04-30T04:01:45;101149.66;;;10.78;84.40
69173;BME280;56280;49.662;8.408;2023-04-30T04:04:10;101138.75;;;10.57;84.39
69173;BME280;56280;49.662;8.408;2023-04-30T04:06:36;101155.13;;;10.64;85.16
69173;BME280;56280;49.662;8.408;2023-04-30T04:09:01;101169.28;;;10.51;85.84
69173;BME280;56280;49.662;8.408;2023-04-30T04:11:26;101152.47;;;10.51;85.33
69173;BME280;56280;49.662;8.408;2023-04-30T04:13:51;101152.38;;;10.52;85.49
69173;BME280;56280;49.662;8.408;2023-04-30T04:16:17;101165.97;;;10.48;85.14
69173;BME280;56280;49.662;8.408;2023-04-30T04:18:42;101146.75;;;10.44;86.05
69173;BME280;56280;49.662;8.408;2023-04-30T04:21:07;101174.69;;;10.63;85.11
69173;BME280;56280;49.662;8.408;2023-04-30T04:23:32;101156.72;;;10.53;85.33
69173;BME280;56280;49.662;8.408;2023-04-30T04:25:58;101175.66;;;10.62;85.09
69173;BME280;56280;49.662;8.408;2023-04-30T04:28:24;101174.81;;;10.61;85.14
69173;BME280;56280;49.662;8.408;2023-04-30T04:30:49;101161.94;;;10.55;84.66
69173;BME280;56280;49.662;8.408;2023-04-30T04:33:15;101173.81;;;10.62;84.73
69173;BME280;56280;49.662;8.408;2023-04-30T04:35:41;101172.88;;;10.50;85.15
69173;BME280;56280;49.662;8.408;2023-04-30T04:38:06;101182.69;;;10.50;85.31
69173;BME280;56280;49.662;8.408;2023-04-30T04:40:32;101174.03;;;10.59;85.06
69173;BME280;56280;49.662;8.408;2023-04-30T04:42:59;101177.56;;;10.60;84.72
69173;BME280;56280;49.662;8.408;2023-04-30T04:45:24;101168.63;;;10.61;84.87
69173;BME280;56280;49.662;8.408;2023-04-30T04:47:50;101183.09;;;10.69;84.34
69173;BME280;56280;49.662;8.408;2023-04-30T04:50:15;101178.09;;;10.65;84.38
69173;BME280;56280;49.662;8.408;2023-04-30T04:52:41;101183.28;;;10.66;84.10
69173;BME280;56280;49.662;8.408;2023-04-30T04:55:07;101174.03;;;10.59;84.67
69173;BME280;56280;49.662;8.408;2023-04-30T04:57:32;101197.31;;;10.68;84.49
69173;BME280;56280;49.662;8.408;2023-04-30T04:59:57;101182.31;;;10.54;85.67
69173;BME280;56280;49.662;8.408;2023-04-30T05:02:23;101189.47;;;10.54;84.56
69173;BME280;56280;49.662;8.408;2023-04-30T05:04:48;101174.91;;;10.47;84.71
69173;BME280;56280;49.662;8.408;2023-04-30T05:07:16;101186.06;;;10.65;85.51
69173;BME280;56280;49.662;8.408;2023-04-30T05:09:42;101180.41;;;10.82;84.67
69173;BME280;56280;49.662;8.408;2023-04-30T05:12:07;101186.78;;;10.67;84.48
69173;BME280;56280;49.662;8.408;2023-04-30T05:14:32;101185.84;;;10.68;84.87
69173;BME280;56280;49.662;8.408;2023-04-30T05:16:58;101185.63;;;10.71;85.70
69173;BME280;56280;49.662;8.408;2023-04-30T05:19:23;101181.78;;;10.75;85.67
69173;BME280;56280;49.662;8.408;2023-04-30T05:21:48;101188.06;;;10.74;85.70
69173;BME280;56280;49.662;8.408;2023-04-30T05:24:13;101198.03;;;10.83;84.22
69173;BME280;56280;49.662;8.408;2023-04-30T05:26:39;101189.25;;;10.57;85.14
69173;BME280;56280;49.662;8.408;2023-04-30T05:29:04;101167.69;;;10.49;86.51
69173;BME280;56280;49.662;8.408;2023-04-30T05:31:30;101186.47;;;10.58;86.76
69173;BME280;56280;49.662;8.408;2023-04-30T05:33:56;101183.91;;;10.70;86.50
69173;BME280;56280;49.662;8.408;2023-04-30T05:36:21;101182.63;;;10.88;85.91
69173;BME280;56280;49.662;8.408;2023-04-30T05:38:47;101195.19;;;10.73;85.99
69173;BME280;56280;49.662;8.408;2023-04-30T05:41:12;101185.75;;;10.56;85.83
69173;BME280;56280;49.662;8.408;2023-04-30T05:43:37;101199.34;;;10.65;86.56
69173;BME280;56280;49.662;8.408;2023-04-30T05:46:03;101201.88;;;10.79;86.15
69173;BME280;56280;49.662;8.408;2023-04-30T05:48:29;101181.88;;;10.86;85.88
69173;BME280;56280;49.662;8.408;2023-04-30T05:50:54;101199.63;;;10.99;85.38
69173;BME280;56280;49.662;8.408;2023-04-30T05:53:19;101193.44;;;11.11;84.88
69173;BME280;56280;49.662;8.408;2023-04-30T05:55:45;101196.75;;;11.02;83.57
69173;BME280;56280;49.662;8.408;2023-04-30T05:58:10;101200.56;;;10.98;84.92
69173;BME280;56280;49.662;8.408;2023-04-30T06:00:35;101200.84;;;11.06;85.68
69173;BME280;56280;49.662;8.408;2023-04-30T06:03:01;101199.03;;;11.19;84.11
69173;BME280;56280;49.662;8.408;2023-04-30T06:05:26;101191.19;;;11.05;84.42
69173;BME280;56280;49.662;8.408;2023-04-30T06:07:51;101197.91;;;10.98;84.00
69173;BME280;56280;49.662;8.408;2023-04-30T06:10:17;101195.31;;;11.09;84.98
69173;BME280;56280;49.662;8.408;2023-04-30T06:12:42;101194.66;;;11.18;84.27
69173;BME280;56280;49.662;8.408;2023-04-30T06:15:07;101185.03;;;11.28;83.62
69173;BME280;56280;49.662;8.408;2023-04-30T06:17:33;101199.78;;;11.21;83.50
69173;BME280;56280;49.662;8.408;2023-04-30T06:19:58;101195.63;;;11.17;84.09
69173;BME280;56280;49.662;8.408;2023-04-30T06:22:26;101205.59;;;11.26;83.92
69173;BME280;56280;49.662;8.408;2023-04-30T06:24:52;101197.09;;;11.21;83.73
69173;BME280;56280;49.662;8.408;2023-04-30T06:27:17;101201.03;;;11.16;83.43
69173;BME280;56280;49.662;8.408;2023-04-30T06:29:42;101193.34;;;11.37;83.54
69173;BME280;56280;49.662;8.408;2023-04-30T06:32:07;101198.22;;;11.30;83.49
69173;BME280;56280;49.662;8.408;2023-04-30T06:34:33;101200.84;;;11.43;82.59
69173;BME280;56280;49.662;8.408;2023-04-30T06:36:58;101207.81;;;11.32;82.81
69173;BME280;56280;49.662;8.408;2023-04-30T06:39:23;101172.72;;;11.52;83.67
69173;BME280;56280;49.662;8.408;2023-04-30T06:41:49;101199.09;;;11.79;82.47
69173;BME280;56280;49.662;8.408;2023-04-30T06:44:14;101187.84;;;11.75;82.62
69173;BME280;56280;49.662;8.408;2023-04-30T06:46:40;101186.75;;;11.54;82.86
69173;BME280;56280;49.662;8.408;2023-04-30T06:49:05;101198.88;;;11.82;81.88
69173;BME280;56280;49.662;8.408;2023-04-30T06:51:31;101183.38;;;12.11;81.87
69173;BME280;56280;49.662;8.408;2023-04-30T06:53:56;101201.44;;;12.19;80.42
69173;BME280;56280;49.662;8.408;2023-04-30T06:56:21;101201.69;;;12.16;80.84
69173;BME280;56280;49.662;8.408;2023-04-30T06:58:47;101201.97;;;12.35;80.03
69173;BME280;56280;49.662;8.408;2023-04-30T07:01:14;101209.13;;;12.46;79.79
69173;BME280;56280;49.662;8.408;2023-04-30T07:03:39;101209.03;;;12.82;77.84
69173;BME280;56280;49.662;8.408;2023-04-30T07:06:04;101196.41;;;12.84;77.07
69173;BME280;56280;49.662;8.408;2023-04-30T07:08:30;101196.44;;;12.72;77.98
69173;BME280;56280;49.662;8.408;2023-04-30T07:10:55;101204.28;;;13.08;75.71
69173;BME280;56280;49.662;8.408;2023-04-30T07:13:21;101201.34;;;13.22;76.24
69173;BME280;56280;49.662;8.408;2023-04-30T07:15:46;101197.56;;;13.25;75.09
69173;BME280;56280;49.662;8.408;2023-04-30T07:18:11;101200.22;;;13.59;74.68
69173;BME280;56280;49.662;8.408;2023-04-30T07:20:37;101199.22;;;13.60;73.38
69173;BME280;56280;49.662;8.408;2023-04-30T07:23:11;101191.56;;;13.88;73.30
69173;BME280;56280;49.662;8.408;2023-04-30T07:25:36;101172.97;;;13.65;71.31
69173;BME280;56280;49.662;8.408;2023-04-30T07:28:18;101174.25;;;14.03;71.63
69173;BME280;56280;49.662;8.408;2023-04-30T07:30:46;101156.34;;;13.94;67.42
69173;BME280;56280;49.662;8.408;2023-04-30T07:33:15;101115.38;;;13.62;69.72
69173;BME280;56280;49.662;8.408;2023-04-30T07:35:41;101057.53;;;13.52;70.42
69173;BME280;56280;49.662;8.408;2023-04-30T07:38:15;101166.38;;;14.53;66.93
69173;BME280;56280;49.662;8.408;2023-04-30T07:40:51;101148.50;;;14.75;68.04
69173;BME280;56280;49.662;8.408;2023-04-30T07:43:35;101110.59;;;14.39;65.00
69173;BME280;56280;49.662;8.408;2023-04-30T07:46:22;101192.81;;;15.18;68.93
69173;BME280;56280;49.662;8.408;2023-04-30T07:49:11;101134.25;;;15.15;66.60
69173;BME280;56280;49.662;8.408;2023-04-30T07:51:37;101114.41;;;14.67;63.56
69173;BME280;56280;49.662;8.408;2023-04-30T07:54:22;101109.91;;;14.68;65.56
69173;BME280;56280;49.662;8.408;2023-04-30T07:57:13;101187.53;;;15.38;64.77
69173;BME280;56280;49.662;8.408;2023-04-30T07:59:44;101057.88;;;15.01;63.39
69173;BME280;56280;49.662;8.408;2023-04-30T08:02:32;101083.66;;;14.92;62.61
69173;BME280;56280;49.662;8.408;2023-04-30T08:05:00;101130.50;;;14.77;63.69
69173;BME280;56280;49.662;8.408;2023-04-30T08:08:10;101191.38;;;15.84;63.42
69173;BME280;56280;49.662;8.408;2023-04-30T08:11:04;101055.78;;;15.24;62.70
69173;BME280;56280;49.662;8.408;2023-04-30T08:13:41;101081.97;;;15.89;59.57
69173;BME280;56280;49.662;8.408;2023-04-30T08:16:18;101157.66;;;16.01;59.83
69173;BME280;56280;49.662;8.408;2023-04-30T08:18:44;101086.91;;;15.45;58.99
69173;BME280;56280;49.662;8.408;2023-04-30T08:21:46;101191.22;;;16.25;59.18
69173;BME280;56280;49.662;8.408;2023-04-30T08:24:21;101095.94;;;15.63;57.70
69173;BME280;56280;49.662;8.408;2023-04-30T08:26:46;101110.72;;;15.77;57.44
69173;BME280;56280;49.662;8.408;2023-04-30T08:29:20;101078.59;;;15.77;57.97
69173;BME280;56280;49.662;8.408;2023-04-30T08:32:07;101174.75;;;16.57;60.01
69173;BME280;56280;49.662;8.408;2023-04-30T08:35:06;101130.78;;;16.30;54.80
69173;BME280;56280;49.662;8.408;2023-04-30T08:37:55;101087.28;;;16.09;57.32
69173;BME280;56280;49.662;8.408;2023-04-30T08:40:32;101076.88;;;15.57;57.11
69173;BME280;56280;49.662;8.408;2023-04-30T08:43:11;101137.31;;;16.28;57.44
69173;BME280;56280;49.662;8.408;2023-04-30T08:46:00;101111.91;;;16.22;55.19
69173;BME280;56280;49.662;8.408;2023-04-30T08:48:41;101091.78;;;16.46;54.78
69173;BME280;56280;49.662;8.408;2023-04-30T08:51:44;101175.38;;;17.06;52.38
69173;BME280;56280;49.662;8.408;2023-04-30T08:58:22;101113.34;;;16.82;48.99
69173;BME280;56280;49.662;8.408;2023-04-30T09:04:21;101165.66;;;17.05;53.94
69173;BME280;56280;49.662;8.408;2023-04-30T09:06:55;101195.47;;;17.48;53.97
69173;BME280;56280;49.662;8.408;2023-04-30T09:09:57;101077.91;;;16.88;53.01
69173;BME280;56280;49.662;8.408;2023-04-30T09:12:36;101073.75;;;16.38;53.13
69173;BME280;56280;49.662;8.408;2023-04-30T09:15:37;101088.16;;;16.37;53.79
69173;BME280;56280;49.662;8.408;2023-04-30T09:18:12;101158.06;;;17.01;51.35
69173;BME280;56280;49.662;8.408;2023-04-30T09:21:02;101197.47;;;15.86;53.71
69173;BME280;56280;49.662;8.408;2023-04-30T09:23:36;101059.16;;;15.56;57.68
69173;BME280;56280;49.662;8.408;2023-04-30T09:26:50;101188.19;;;16.85;57.93
69173;BME280;56280;49.662;8.408;2023-04-30T09:29:50;101100.03;;;15.77;52.48
69173;BME280;56280;49.662;8.408;2023-04-30T09:32:18;101064.19;;;14.81;55.29
69173;BME280;56280;49.662;8.408;2023-04-30T09:34:44;101169.50;;;15.59;55.01
69173;BME280;56280;49.662;8.408;2023-04-30T09:37:36;101164.84;;;15.61;58.20
69173;BME280;56280;49.662;8.408;2023-04-30T09:50:35;101162.72;;;15.55;55.23
69173;BME280;56280;49.662;8.408;2023-04-30T09:53:41;101081.53;;;15.84;59.38
69173;BME280;56280;49.662;8.408;2023-04-30T09:56:38;101077.03;;;15.84;54.08
69173;BME280;56280;49.662;8.408;2023-04-30T09:59:30;101042.84;;;15.29;55.26
69173;BME280;56280;49.662;8.408;2023-04-30T10:02:12;101079.69;;;15.94;50.63
69173;BME280;56280;49.662;8.408;2023-04-30T10:05:02;101031.25;;;16.43;52.89
69173;BME280;56280;49.662;8.408;2023-04-30T10:07:37;101032.47;;;16.76;50.44
69173;BME280;56280;49.662;8.408;2023-04-30T10:10:19;101052.38;;;17.02;49.17
69173;BME280;56280;49.662;8.408;2023-04-30T10:13:10;101057.56;;;16.85;48.09
69173;BME280;56280;49.662;8.408;2023-04-30T10:15:40;101075.34;;;16.58;50.09
69173;BME280;56280;49.662;8.408;2023-04-30T10:18:17;101150.91;;;16.82;49.37
69173;BME280;56280;49.662;8.408;2023-04-30T10:20:47;101148.91;;;16.84;49.23
69173;BME280;56280;49.662;8.408;2023-04-30T10:26:07;101063.59;;;16.04;53.82
69173;BME280;56280;49.662;8.408;2023-04-30T10:28:33;101044.44;;;16.54;47.87
69173;BME280;56280;49.662;8.408;2023-04-30T10:31:04;101099.94;;;16.82;52.41
69173;BME280;56280;49.662;8.408;2023-04-30T10:36:50;100997.88;;;15.43;53.39
69173;BME280;56280;49.662;8.408;2023-04-30T10:39:26;101041.66;;;15.61;54.18
69173;BME280;56280;49.662;8.408;2023-04-30T10:44:55;101053.47;;;15.88;55.24
69173;BME280;56280;49.662;8.408;2023-04-30T10:47:30;101100.31;;;16.31;49.70
69173;BME280;56280;49.662;8.408;2023-04-30T10:50:07;101089.75;;;16.85;49.04
69173;BME280;56280;49.662;8.408;2023-04-30T10:52:37;100973.25;;;16.14;47.30
69173;BME280;56280;49.662;8.408;2023-04-30T10:55:07;101010.91;;;16.68;45.12
69173;BME280;56280;49.662;8.408;2023-04-30T10:57:42;101081.19;;;17.18;44.58
69173;BME280;56280;49.662;8.408;2023-04-30T11:02:42;101082.28;;;17.07;42.36
69173;BME280;56280;49.662;8.408;2023-04-30T11:05:17;101004.22;;;16.54;45.13
69173;BME280;56280;49.662;8.408;2023-04-30T11:08:10;101042.34;;;16.76;45.60
69173;BME280;56280;49.662;8.408;2023-04-30T11:11:01;100956.94;;;16.53;43.61
69173;BME280;56280;49.662;8.408;2023-04-30T11:20:40;101020.47;;;17.17;44.69
69173;BME280;56280;49.662;8.408;2023-04-30T11:32:40;101012.06;;;18.59;40.85
69173;BME280;56280;49.662;8.408;2023-04-30T11:35:18;101007.09;;;18.30;42.63
69173;BME280;56280;49.662;8.408;2023-04-30T11:37:53;101035.53;;;19.00;40.56
69173;BME280;56280;49.662;8.408;2023-04-30T11:40:25;100943.75;;;18.35;41.06
69173;BME280;56280;49.662;8.408;2023-04-30T11:43:20;101045.25;;;18.76;40.78
69173;BME280;56280;49.662;8.408;2023-04-30T11:46:18;101047.53;;;19.22;44.43
69173;BME280;56280;49.662;8.408;2023-04-30T11:48:47;100952.19;;;18.57;39.92
69173;BME280;56280;49.662;8.408;2023-04-30T11:51:17;101053.91;;;19.04;41.67
69173;BME280;56280;49.662;8.408;2023-04-30T11:54:15;100958.03;;;18.36;39.94
69173;BME280;56280;49.662;8.408;2023-04-30T11:56:48;101049.69;;;19.02;39.33
69173;BME280;56280;49.662;8.408;2023-04-30T11:59:29;100898.25;;;17.99;39.25
69173;BME280;56280;49.662;8.408;2023-04-30T12:01:57;101010.66;;;19.14;40.29
69173;BME280;56280;49.662;8.408;2023-04-30T12:04:35;101021.44;;;19.47;38.96
69173;BME280;56280;49.662;8.408;2023-04-30T12:07:06;101001.38;;;19.41;38.57
69173;BME280;56280;49.662;8.408;2023-04-30T12:12:53;100970.59;;;19.11;38.15
69173;BME280;56280;49.662;8.408;2023-04-30T12:15:31;101002.06;;;19.43;38.58
69173;BME280;56280;49.662;8.408;2023-04-30T12:18:16;100910.13;;;18.39;39.52
69173;BME280;56280;49.662;8.408;2023-04-30T12:21:07;100953.44;;;19.04;38.27
69173;BME280;56280;49.662;8.408;2023-04-30T12:23:44;100958.97;;;19.19;38.04
69173;BME280;56280;49.662;8.408;2023-04-30T12:26:38;101040.41;;;18.96;42.18
69173;BME280;56280;49.662;8.408;2023-04-30T12:29:17;100961.06;;;18.41;38.58
69173;BME280;56280;49.662;8.408;2023-04-30T12:31:58;100912.31;;;18.52;39.80
69173;BME280;56280;49.662;8.408;2023-04-30T12:34:41;100918.38;;;18.63;38.71
69173;BME280;56280;49.662;8.408;2023-04-30T12:37:10;100991.78;;;19.14;37.27
69173;BME280;56280;49.662;8.408;2023-04-30T12:39:44;100962.19;;;19.14;38.78
69173;BME280;56280;49.662;8.408;2023-04-30T12:42:34;100945.03;;;19.07;37.97
69173;BME280;56280;49.662;8.408;2023-04-30T12:45:25;100966.41;;;19.08;37.75
69173;BME280;56280;49.662;8.408;2023-04-30T12:48:18;100899.53;;;18.38;40.28
69173;BME280;56280;49.662;8.408;2023-04-30T12:51:05;100918.34;;;18.38;37.45
69173;BME280;56280;49.662;8.408;2023-04-30T12:53:52;100930.19;;;18.78;40.51
69173;BME280;56280;49.662;8.408;2023-04-30T12:56:21;100934.56;;;18.71;37.06
69173;BME280;56280;49.662;8.408;2023-04-30T13:02:16;100954.94;;;19.31;37.54
69173;BME280;56280;49.662;8.408;2023-04-30T13:04:57;100881.91;;;19.09;37.51
69173;BME280;56280;49.662;8.408;2023-04-30T13:07:25;100959.66;;;19.12;40.25
69173;BME280;56280;49.662;8.408;2023-04-30T13:10:32;100896.84;;;18.63;38.68
69173;BME280;56280;49.662;8.408;2023-04-30T13:13:21;100981.38;;;19.19;37.84
69173;BME280;56280;49.662;8.408;2023-04-30T13:22:37;100974.25;;;19.51;39.47
69173;BME280;56280;49.662;8.408;2023-04-30T13:25:53;100895.88;;;19.21;38.48
69173;BME280;56280;49.662;8.408;2023-04-30T13:31:38;100968.56;;;19.38;38.72
69173;BME280;56280;49.662;8.408;2023-04-30T13:34:33;100955.38;;;19.59;36.94
69173;BME280;56280;49.662;8.408;2023-04-30T13:37:17;100835.84;;;18.88;39.59
69173;BME280;56280;49.662;8.408;2023-04-30T13:40:30;100889.16;;;19.01;39.35
69173;BME280;56280;49.662;8.408;2023-04-30T13:42:56;100957.44;;;19.41;38.86
69173;BME280;56280;49.662;8.408;2023-04-30T13:45:33;100928.06;;;19.79;36.50
69173;BME280;56280;49.662;8.408;2023-04-30T13:48:14;100848.34;;;19.37;35.88
69173;BME280;56280;49.662;8.408;2023-04-30T13:50:45;100900.16;;;19.55;36.84
69173;BME280;56280;49.662;8.408;2023-04-30T13:53:17;100938.38;;;19.59;36.90
69173;BME280;56280;49.662;8.408;2023-04-30T13:56:07;100924.03;;;19.66;36.46
69173;BME280;56280;49.662;8.408;2023-04-30T13:58:42;100910.69;;;19.81;35.39
69173;BME280;56280;49.662;8.408;2023-04-30T14:01:26;100837.19;;;19.48;35.63
69173;BME280;56280;49.662;8.408;2023-04-30T14:04:00;100914.44;;;20.12;36.94
69173;BME280;56280;49.662;8.408;2023-04-30T14:06:41;100834.69;;;19.46;36.37
69173;BME280;56280;49.662;8.408;2023-04-30T14:09:10;100833.03;;;19.37;37.52
69173;BME280;56280;49.662;8.408;2023-04-30T14:11:45;100794.06;;;19.48;38.34
69173;BME280;56280;49.662;8.408;2023-04-30T14:14:43;100817.56;;;19.71;36.45
69173;BME280;56280;49.662;8.408;2023-04-30T14:17:13;100861.81;;;19.28;36.11
69173;BME280;56280;49.662;8.408;2023-04-30T14:19:48;100930.66;;;19.47;38.05
69173;BME280;56280;49.662;8.408;2023-04-30T14:25:26;100928.78;;;19.64;36.39
69173;BME280;56280;49.662;8.408;2023-04-30T14:28:03;100862.38;;;19.16;38.41
69173;BME280;56280;49.662;8.408;2023-04-30T14:30:35;100880.50;;;19.30;39.96
69173;BME280;56280;49.662;8.408;2023-04-30T14:33:06;100826.22;;;19.10;37.66
69173;BME280;56280;49.662;8.408;2023-04-30T14:36:05;100845.06;;;19.02;36.88